sensor_id;sensor_type;location;lat;lon;timestamp;pressure;altitude;pressure_sealevel;temperature;humidity
84051;BME280;74137;50.136;19.040;2024-01-30T00:01:16;100711.86;;;-3.15;74.73
84051;BME280;74137;50.136;19.040;2024-01-30T00:03:48;100707.15;;;-3.18;74.82
84051;BME280;74137;50.136;19.040;2024-01-30T00:06:19;100713.30;;;-3.19;75.14
84051;BME280;74137;50.136;19.040;2024-01-30T00:08:49;100713.14;;;-3.19;75.04
84051;BME280;74137;50.136;19.040;2024-01-30T00:11:21;100710.20;;;-3.20;74.80
84051;BME280;74137;50.136;19.040;2024-01-30T00:13:49;100706.73;;;-3.21;75.10
84051;BME280;74137;50.136;19.040;2024-01-30T00:16:22;100703.88;;;-3.24;75.05
84051;BME280;74137;50.136;19.040;2024-01-30T00:18:53;100705.52;;;-3.27;75.06
84051;BME280;74137;50.136;19.040;2024-01-30T00:21:21;100702.69;;;-3.30;75.02
84051;BME280;74137;50.136;19.040;2024-01-30T00:23:49;100704.55;;;-3.30;75.20
84051;BME280;74137;50.136;19.040;2024-01-30T00:26:18;100707.11;;;-3.32;75.09
84051;BME280;74137;50.136;19.040;2024-01-30T00:28:46;100706.08;;;-3.31;75.46
84051;BME280;74137;50.136;19.040;2024-01-30T00:31:14;100707.80;;;-3.31;75.45
84051;BME280;74137;50.136;19.040;2024-01-30T00:33:43;100702.95;;;-3.33;75.49
84051;BME280;74137;50.136;19.040;2024-01-30T00:36:11;100703.26;;;-3.34;75.66
84051;BME280;74137;50.136;19.040;2024-01-30T00:38:41;100701.64;;;-3.36;75.34
84051;BME280;74137;50.136;19.040;2024-01-30T00:41:10;100702.42;;;-3.39;75.36
84051;BME280;74137;50.136;19.040;2024-01-30T00:43:41;100702.36;;;-3.41;75.20
84051;BME280;74137;50.136;19.040;2024-01-30T00:46:14;100700.94;;;-3.43;75.37
84051;BME280;74137;50.136;19.040;2024-01-30T00:48:42;100706.08;;;-3.43;75.41
84051;BME280;74137;50.136;19.040;2024-01-30T00:51:12;100700.54;;;-3.44;75.52
84051;BME280;74137;50.136;19.040;2024-01-30T00:53:43;100699.48;;;-3.46;75.18
84051;BME280;74137;50.136;19.040;2024-01-30T00:56:11;100699.26;;;-3.47;75.09
84051;BME280;74137;50.136;19.040;2024-01-30T00:58:40;100696.55;;;-3.51;75.13
84051;BME280;74137;50.136;19.040;2024-01-30T01:01:10;100695.42;;;-3.55;75.18
84051;BME280;74137;50.136;19.040;2024-01-30T01:03:39;100688.82;;;-3.58;74.92
84051;BME280;74137;50.136;19.040;2024-01-30T01:06:11;100683.13;;;-3.58;74.94
84051;BME280;74137;50.136;19.040;2024-01-30T01:08:39;100681.92;;;-3.59;74.82
84051;BME280;74137;50.136;19.040;2024-01-30T01:11:08;100681.52;;;-3.61;74.80
84051;BME280;74137;50.136;19.040;2024-01-30T01:13:38;100682.01;;;-3.61;75.39
84051;BME280;74137;50.136;19.040;2024-01-30T01:16:09;100681.20;;;-3.66;75.20
84051;BME280;74137;50.136;19.040;2024-01-30T01:18:37;100680.03;;;-3.70;74.83
84051;BME280;74137;50.136;19.040;2024-01-30T01:21:11;100677.56;;;-3.72;75.18
84051;BME280;74137;50.136;19.040;2024-01-30T01:23:39;100670.83;;;-3.74;74.92
84051;BME280;74137;50.136;19.040;2024-01-30T01:26:09;100666.17;;;-3.75;74.53
84051;BME280;74137;50.136;19.040;2024-01-30T01:28:40;100665.14;;;-3.75;74.97
84051;BME280;74137;50.136;19.040;2024-01-30T01:31:09;100659.30;;;-3.75;75.17
84051;BME280;74137;50.136;19.040;2024-01-30T01:33:37;100662.52;;;-3.76;74.92
84051;BME280;74137;50.136;19.040;2024-01-30T01:36:06;100656.79;;;-3.79;75.07
84051;BME280;74137;50.136;19.040;2024-01-30T01:38:36;100663.55;;;-3.82;74.89
84051;BME280;74137;50.136;19.040;2024-01-30T01:41:04;100665.29;;;-3.86;74.73
84051;BME280;74137;50.136;19.040;2024-01-30T01:43:33;100665.19;;;-3.89;74.97
84051;BME280;74137;50.136;19.040;2024-01-30T01:46:02;100661.20;;;-3.91;74.56
84051;BME280;74137;50.136;19.040;2024-01-30T01:48:30;100662.20;;;-3.92;74.88
84051;BME280;74137;50.136;19.040;2024-01-30T01:50:59;100661.11;;;-3.94;74.89
84051;BME280;74137;50.136;19.040;2024-01-30T01:53:27;100662.64;;;-3.94;75.15
84051;BME280;74137;50.136;19.040;2024-01-30T01:55:56;100658.67;;;-3.95;75.66
84051;BME280;74137;50.136;19.040;2024-01-30T01:58:27;100656.54;;;-3.98;75.10
84051;BME280;74137;50.136;19.040;2024-01-30T02:00:58;100656.46;;;-4.00;74.96
84051;BME280;74137;50.136;19.040;2024-01-30T02:03:29;100655.98;;;-3.99;75.43
84051;BME280;74137;50.136;19.040;2024-01-30T02:06:01;100655.74;;;-3.96;75.88
84051;BME280;74137;50.136;19.040;2024-01-30T02:08:30;100652.20;;;-3.94;75.75
84051;BME280;74137;50.136;19.040;2024-01-30T02:10:58;100654.31;;;-3.92;75.68
84051;BME280;74137;50.136;19.040;2024-01-30T02:13:27;100650.91;;;-3.91;75.29
84051;BME280;74137;50.136;19.040;2024-01-30T02:15:56;100651.27;;;-3.91;75.88
84051;BME280;74137;50.136;19.040;2024-01-30T02:18:26;100653.31;;;-3.91;75.83
84051;BME280;74137;50.136;19.040;2024-01-30T02:20:56;100653.92;;;-3.94;75.60
84051;BME280;74137;50.136;19.040;2024-01-30T02:23:27;100650.27;;;-3.95;75.64
84051;BME280;74137;50.136;19.040;2024-01-30T02:25:55;100651.85;;;-3.94;75.36
84051;BME280;74137;50.136;19.040;2024-01-30T02:28:29;100648.06;;;-3.95;75.42
84051;BME280;74137;50.136;19.040;2024-01-30T02:30:57;100651.16;;;-3.94;75.55
84051;BME280;74137;50.136;19.040;2024-01-30T02:33:25;100652.19;;;-3.94;75.49
84051;BME280;74137;50.136;19.040;2024-01-30T02:35:54;100650.99;;;-3.94;75.18
84051;BME280;74137;50.136;19.040;2024-01-30T02:38:22;100651.94;;;-3.96;75.09
84051;BME280;74137;50.136;19.040;2024-01-30T02:40:54;100652.57;;;-3.98;75.49
84051;BME280;74137;50.136;19.040;2024-01-30T02:43:26;100651.46;;;-4.02;75.29
84051;BME280;74137;50.136;19.040;2024-01-30T02:45:54;100649.35;;;-4.02;75.41
84051;BME280;74137;50.136;19.040;2024-01-30T02:48:28;100651.39;;;-4.03;75.03
84051;BME280;74137;50.136;19.040;2024-01-30T02:50:56;100647.62;;;-4.03;75.39
84051;BME280;74137;50.136;19.040;2024-01-30T02:53:26;100646.81;;;-4.02;75.55
84051;BME280;74137;50.136;19.040;2024-01-30T02:55:54;100648.00;;;-4.02;75.41
84051;BME280;74137;50.136;19.040;2024-01-30T02:58:24;100644.15;;;-4.04;75.44
84051;BME280;74137;50.136;19.040;2024-01-30T03:00:52;100643.59;;;-4.06;75.52
84051;BME280;74137;50.136;19.040;2024-01-30T03:03:21;100638.70;;;-4.08;75.25
84051;BME280;74137;50.136;19.040;2024-01-30T03:05:49;100638.02;;;-4.08;75.25
84051;BME280;74137;50.136;19.040;2024-01-30T03:08:21;100640.63;;;-4.07;75.34
84051;BME280;74137;50.136;19.040;2024-01-30T03:10:49;100640.77;;;-4.08;75.28
84051;BME280;74137;50.136;19.040;2024-01-30T03:13:17;100643.81;;;-4.10;75.34
84051;BME280;74137;50.136;19.040;2024-01-30T03:15:46;100639.77;;;-4.12;75.27
84051;BME280;74137;50.136;19.040;2024-01-30T03:18:14;100641.73;;;-4.16;75.00
84051;BME280;74137;50.136;19.040;2024-01-30T03:20:42;100639.23;;;-4.19;75.04
84051;BME280;74137;50.136;19.040;2024-01-30T03:23:10;100642.05;;;-4.22;75.10
84051;BME280;74137;50.136;19.040;2024-01-30T03:25:38;100640.97;;;-4.23;75.10
84051;BME280;74137;50.136;19.040;2024-01-30T03:28:09;100640.45;;;-4.23;74.82
84051;BME280;74137;50.136;19.040;2024-01-30T03:30:37;100637.05;;;-4.23;75.42
84051;BME280;74137;50.136;19.040;2024-01-30T03:33:05;100637.52;;;-4.24;75.24
84051;BME280;74137;50.136;19.040;2024-01-30T03:35:38;100635.75;;;-4.26;74.82
84051;BME280;74137;50.136;19.040;2024-01-30T03:38:14;100633.94;;;-4.29;75.10
84051;BME280;74137;50.136;19.040;2024-01-30T03:40:44;100637.93;;;-4.33;74.90
84051;BME280;74137;50.136;19.040;2024-01-30T03:43:13;100634.27;;;-4.36;74.81
84051;BME280;74137;50.136;19.040;2024-01-30T03:45:41;100629.94;;;-4.37;74.84
84051;BME280;74137;50.136;19.040;2024-01-30T03:48:09;100632.10;;;-4.38;74.89
84051;BME280;74137;50.136;19.040;2024-01-30T03:50:37;100634.30;;;-4.39;74.45
84051;BME280;74137;50.136;19.040;2024-01-30T03:53:06;100634.39;;;-4.42;75.02
84051;BME280;74137;50.136;19.040;2024-01-30T03:55:34;100633.70;;;-4.42;75.15
84051;BME280;74137;50.136;19.040;2024-01-30T03:58:02;100636.86;;;-4.44;74.99
84051;BME280;74137;50.136;19.040;2024-01-30T04:00:31;100636.11;;;-4.46;75.41
84051;BME280;74137;50.136;19.040;2024-01-30T04:02:59;100638.11;;;-4.49;75.54
84051;BME280;74137;50.136;19.040;2024-01-30T04:05:27;100641.40;;;-4.48;75.43
84051;BME280;74137;50.136;19.040;2024-01-30T04:07:58;100641.58;;;-4.47;75.07
84051;BME280;74137;50.136;19.040;2024-01-30T04:10:27;100642.50;;;-4.46;75.16
84051;BME280;74137;50.136;19.040;2024-01-30T04:12:55;100639.44;;;-4.45;75.17
84051;BME280;74137;50.136;19.040;2024-01-30T04:15:23;100638.61;;;-4.43;74.86
84051;BME280;74137;50.136;19.040;2024-01-30T04:17:54;100636.16;;;-4.45;75.26
84051;BME280;74137;50.136;19.040;2024-01-30T04:20:25;100634.74;;;-4.46;75.36
84051;BME280;74137;50.136;19.040;2024-01-30T04:22:53;100633.60;;;-4.50;74.90
84051;BME280;74137;50.136;19.040;2024-01-30T04:25:22;100635.04;;;-4.54;74.53
84051;BME280;74137;50.136;19.040;2024-01-30T04:27:50;100632.07;;;-4.56;74.79
84051;BME280;74137;50.136;19.040;2024-01-30T04:30:18;100628.77;;;-4.57;74.96
84051;BME280;74137;50.136;19.040;2024-01-30T04:32:46;100627.39;;;-4.57;74.78
84051;BME280;74137;50.136;19.040;2024-01-30T04:35:15;100630.27;;;-4.58;74.85
84051;BME280;74137;50.136;19.040;2024-01-30T04:37:45;100625.96;;;-4.58;74.89
84051;BME280;74137;50.136;19.040;2024-01-30T04:40:14;100629.31;;;-4.61;74.84
84051;BME280;74137;50.136;19.040;2024-01-30T04:42:42;100628.69;;;-4.64;75.25
84051;BME280;74137;50.136;19.040;2024-01-30T04:45:10;100627.90;;;-4.67;74.84
84051;BME280;74137;50.136;19.040;2024-01-30T04:47:41;100626.89;;;-4.72;74.81
84051;BME280;74137;50.136;19.040;2024-01-30T04:50:09;100631.48;;;-4.73;74.58
84051;BME280;74137;50.136;19.040;2024-01-30T04:52:38;100634.33;;;-4.75;74.87
84051;BME280;74137;50.136;19.040;2024-01-30T04:55:07;100639.27;;;-4.76;75.23
84051;BME280;74137;50.136;19.040;2024-01-30T04:57:38;100639.30;;;-4.75;75.34
84051;BME280;74137;50.136;19.040;2024-01-30T05:00:07;100633.71;;;-4.73;75.85
84051;BME280;74137;50.136;19.040;2024-01-30T05:02:37;100635.33;;;-4.71;75.74
84051;BME280;74137;50.136;19.040;2024-01-30T05:05:11;100631.88;;;-4.71;75.57
84051;BME280;74137;50.136;19.040;2024-01-30T05:07:41;100632.27;;;-4.70;75.90
84051;BME280;74137;50.136;19.040;2024-01-30T05:10:09;100636.96;;;-4.68;75.93
84051;BME280;74137;50.136;19.040;2024-01-30T05:12:40;100634.13;;;-4.66;75.70
84051;BME280;74137;50.136;19.040;2024-01-30T05:15:08;100635.38;;;-4.64;75.86
84051;BME280;74137;50.136;19.040;2024-01-30T05:17:37;100633.23;;;-4.61;75.41
84051;BME280;74137;50.136;19.040;2024-01-30T05:20:05;100633.11;;;-4.60;75.79
84051;BME280;74137;50.136;19.040;2024-01-30T05:22:37;100628.13;;;-4.60;75.41
84051;BME280;74137;50.136;19.040;2024-01-30T05:25:06;100631.54;;;-4.61;75.28
84051;BME280;74137;50.136;19.040;2024-01-30T05:27:34;100632.48;;;-4.63;75.78
84051;BME280;74137;50.136;19.040;2024-01-30T05:30:05;100631.41;;;-4.64;75.94
84051;BME280;74137;50.136;19.040;2024-01-30T05:32:34;100631.66;;;-4.63;75.55
84051;BME280;74137;50.136;19.040;2024-01-30T05:35:03;100632.23;;;-4.61;75.73
84051;BME280;74137;50.136;19.040;2024-01-30T05:37:32;100627.48;;;-4.59;76.02
84051;BME280;74137;50.136;19.040;2024-01-30T05:40:01;100628.73;;;-4.58;75.63
84051;BME280;74137;50.136;19.040;2024-01-30T05:42:29;100630.48;;;-4.57;75.72
84051;BME280;74137;50.136;19.040;2024-01-30T05:44:57;100631.91;;;-4.55;75.49
84051;BME280;74137;50.136;19.040;2024-01-30T05:47:26;100633.55;;;-4.57;75.50
84051;BME280;74137;50.136;19.040;2024-01-30T05:49:54;100636.65;;;-4.57;75.33
84051;BME280;74137;50.136;19.040;2024-01-30T05:52:22;100634.12;;;-4.56;75.47
84051;BME280;74137;50.136;19.040;2024-01-30T05:54:51;100629.69;;;-4.55;75.66
84051;BME280;74137;50.136;19.040;2024-01-30T05:57:21;100637.11;;;-4.54;75.66
84051;BME280;74137;50.136;19.040;2024-01-30T05:59:50;100636.04;;;-4.54;75.88
84051;BME280;74137;50.136;19.040;2024-01-30T06:02:19;100639.95;;;-4.55;75.27
84051;BME280;74137;50.136;19.040;2024-01-30T06:04:48;100640.59;;;-4.57;75.34
84051;BME280;74137;50.136;19.040;2024-01-30T06:07:16;100636.70;;;-4.60;75.34
84051;BME280;74137;50.136;19.040;2024-01-30T06:09:45;100636.09;;;-4.63;75.74
84051;BME280;74137;50.136;19.040;2024-01-30T06:12:14;100641.86;;;-4.65;75.30
84051;BME280;74137;50.136;19.040;2024-01-30T06:14:45;100639.77;;;-4.66;75.52
84051;BME280;74137;50.136;19.040;2024-01-30T06:17:17;100636.83;;;-4.67;75.50
84051;BME280;74137;50.136;19.040;2024-01-30T06:19:45;100637.70;;;-4.66;75.02
84051;BME280;74137;50.136;19.040;2024-01-30T06:22:13;100634.98;;;-4.66;75.38
84051;BME280;74137;50.136;19.040;2024-01-30T06:24:41;100632.57;;;-4.66;75.55
84051;BME280;74137;50.136;19.040;2024-01-30T06:27:14;100634.95;;;-4.67;75.06
84051;BME280;74137;50.136;19.040;2024-01-30T06:29:43;100633.35;;;-4.69;75.17
84051;BME280;74137;50.136;19.040;2024-01-30T06:32:12;100641.59;;;-4.68;74.88
84051;BME280;74137;50.136;19.040;2024-01-30T06:34:41;100641.43;;;-4.68;74.99
84051;BME280;74137;50.136;19.040;2024-01-30T06:37:12;100644.54;;;-4.67;75.22
84051;BME280;74137;50.136;19.040;2024-01-30T06:39:42;100646.48;;;-4.65;75.44
84051;BME280;74137;50.136;19.040;2024-01-30T06:42:10;100643.60;;;-4.64;75.79
84051;BME280;74137;50.136;19.040;2024-01-30T06:44:39;100640.68;;;-4.64;74.98
84051;BME280;74137;50.136;19.040;2024-01-30T06:47:08;100639.84;;;-4.64;75.09
84051;BME280;74137;50.136;19.040;2024-01-30T06:49:36;100640.71;;;-4.63;75.11
84051;BME280;74137;50.136;19.040;2024-01-30T06:52:10;100641.83;;;-4.61;75.03
84051;BME280;74137;50.136;19.040;2024-01-30T06:54:39;100639.85;;;-4.59;74.62
84051;BME280;74137;50.136;19.040;2024-01-30T06:57:08;100640.81;;;-4.55;75.22
84051;BME280;74137;50.136;19.040;2024-01-30T06:59:40;100638.34;;;-4.52;74.74
84051;BME280;74137;50.136;19.040;2024-01-30T07:02:12;100642.77;;;-4.48;75.13
84051;BME280;74137;50.136;19.040;2024-01-30T07:04:45;100644.48;;;-4.42;75.25
84051;BME280;74137;50.136;19.040;2024-01-30T07:07:14;100644.29;;;-4.38;75.64
84051;BME280;74137;50.136;19.040;2024-01-30T07:09:45;100646.45;;;-4.35;75.33
84051;BME280;74137;50.136;19.040;2024-01-30T07:12:15;100643.36;;;-4.29;75.54
84051;BME280;74137;50.136;19.040;2024-01-30T07:14:48;100643.39;;;-4.23;75.79
84051;BME280;74137;50.136;19.040;2024-01-30T07:17:17;100644.34;;;-4.15;75.45
84051;BME280;74137;50.136;19.040;2024-01-30T07:19:45;100647.33;;;-4.07;75.53
84051;BME280;74137;50.136;19.040;2024-01-30T07:22:13;100647.88;;;-4.00;75.99
84051;BME280;74137;50.136;19.040;2024-01-30T07:24:44;100644.14;;;-3.93;75.44
84051;BME280;74137;50.136;19.040;2024-01-30T07:27:17;100643.80;;;-3.88;75.62
84051;BME280;74137;50.136;19.040;2024-01-30T07:29:46;100648.45;;;-3.81;75.67
84051;BME280;74137;50.136;19.040;2024-01-30T07:32:14;100651.98;;;-3.72;75.72
84051;BME280;74137;50.136;19.040;2024-01-30T07:34:42;100652.11;;;-3.62;76.12
84051;BME280;74137;50.136;19.040;2024-01-30T07:37:29;100652.95;;;-3.51;75.99
84051;BME280;74137;50.136;19.040;2024-01-30T07:39:58;100650.48;;;-3.42;76.32
84051;BME280;74137;50.136;19.040;2024-01-30T07:42:29;100647.64;;;-3.33;75.78
84051;BME280;74137;50.136;19.040;2024-01-30T07:44:57;100645.59;;;-3.26;75.74
84051;BME280;74137;50.136;19.040;2024-01-30T07:47:25;100645.11;;;-3.19;76.02
84051;BME280;74137;50.136;19.040;2024-01-30T07:49:59;100640.81;;;-3.12;75.75
84051;BME280;74137;50.136;19.040;2024-01-30T07:52:29;100646.24;;;-3.03;76.25
84051;BME280;74137;50.136;19.040;2024-01-30T07:54:58;100640.67;;;-2.92;75.94
84051;BME280;74137;50.136;19.040;2024-01-30T07:57:28;100641.56;;;-2.84;76.08
84051;BME280;74137;50.136;19.040;2024-01-30T07:59:56;100638.86;;;-2.76;76.09
84051;BME280;74137;50.136;19.040;2024-01-30T08:02:25;100639.92;;;-2.68;76.16
84051;BME280;74137;50.136;19.040;2024-01-30T08:04:53;100638.27;;;-2.58;76.16
84051;BME280;74137;50.136;19.040;2024-01-30T08:07:24;100641.43;;;-2.49;76.26
84051;BME280;74137;50.136;19.040;2024-01-30T08:09:53;100647.56;;;-2.37;76.20
84051;BME280;74137;50.136;19.040;2024-01-30T08:12:21;100649.91;;;-2.26;76.30
84051;BME280;74137;50.136;19.040;2024-01-30T08:14:49;100645.92;;;-2.13;76.40
84051;BME280;74137;50.136;19.040;2024-01-30T08:17:17;100647.31;;;-1.97;76.53
84051;BME280;74137;50.136;19.040;2024-01-30T08:19:45;100651.24;;;-1.83;76.47
84051;BME280;74137;50.136;19.040;2024-01-30T08:22:14;100647.60;;;-1.68;76.42
84051;BME280;74137;50.136;19.040;2024-01-30T08:24:47;100648.39;;;-1.56;76.08
84051;BME280;74137;50.136;19.040;2024-01-30T08:27:18;100645.19;;;-1.44;76.19
84051;BME280;74137;50.136;19.040;2024-01-30T08:29:46;100647.77;;;-1.36;76.13
84051;BME280;74137;50.136;19.040;2024-01-30T08:32:14;100643.44;;;-1.28;75.92
84051;BME280;74137;50.136;19.040;2024-01-30T08:34:45;100648.30;;;-1.18;75.91
84051;BME280;74137;50.136;19.040;2024-01-30T08:37:13;100648.35;;;-1.07;75.91
84051;BME280;74137;50.136;19.040;2024-01-30T08:39:47;100648.52;;;-0.98;75.80
84051;BME280;74137;50.136;19.040;2024-01-30T08:42:15;100644.75;;;-0.87;75.90
84051;BME280;74137;50.136;19.040;2024-01-30T08:44:46;100648.61;;;-0.73;76.50
84051;BME280;74137;50.136;19.040;2024-01-30T08:47:14;100646.61;;;-0.60;76.32
84051;BME280;74137;50.136;19.040;2024-01-30T08:49:44;100645.44;;;-0.48;75.90
84051;BME280;74137;50.136;19.040;2024-01-30T08:52:13;100648.70;;;-0.39;75.79
84051;BME280;74137;50.136;19.040;2024-01-30T08:54:41;100645.91;;;-0.30;75.59
84051;BME280;74137;50.136;19.040;2024-01-30T08:57:09;100647.80;;;-0.19;75.60
84051;BME280;74137;50.136;19.040;2024-01-30T08:59:37;100648.65;;;-0.10;75.60
84051;BME280;74137;50.136;19.040;2024-01-30T09:02:08;100644.79;;;-0.02;75.81
84051;BME280;74137;50.136;19.040;2024-01-30T09:04:39;100641.32;;;0.08;75.69
84051;BME280;74137;50.136;19.040;2024-01-30T09:07:09;100643.66;;;0.15;75.45
84051;BME280;74137;50.136;19.040;2024-01-30T09:09:39;100644.14;;;0.24;75.35
84051;BME280;74137;50.136;19.040;2024-01-30T09:12:11;100646.54;;;0.35;75.46
84051;BME280;74137;50.136;19.040;2024-01-30T09:14:42;100640.97;;;0.45;75.39
84051;BME280;74137;50.136;19.040;2024-01-30T09:17:10;100638.34;;;0.57;75.64
84051;BME280;74137;50.136;19.040;2024-01-30T09:19:38;100641.25;;;0.68;75.27
84051;BME280;74137;50.136;19.040;2024-01-30T09:22:07;100636.58;;;0.81;75.40
84051;BME280;74137;50.136;19.040;2024-01-30T09:24:35;100637.39;;;0.92;74.93
84051;BME280;74137;50.136;19.040;2024-01-30T09:27:04;100634.04;;;1.03;74.93
84051;BME280;74137;50.136;19.040;2024-01-30T09:29:32;100632.80;;;1.16;74.74
84051;BME280;74137;50.136;19.040;2024-01-30T09:32:05;100635.84;;;1.28;74.65
84051;BME280;74137;50.136;19.040;2024-01-30T09:34:36;100631.97;;;1.39;74.52
84051;BME280;74137;50.136;19.040;2024-01-30T09:37:05;100633.80;;;1.49;74.25
84051;BME280;74137;50.136;19.040;2024-01-30T09:39:33;100634.05;;;1.58;74.21
84051;BME280;74137;50.136;19.040;2024-01-30T09:42:05;100632.05;;;1.66;74.05
84051;BME280;74137;50.136;19.040;2024-01-30T09:44:35;100629.86;;;1.74;73.73
84051;BME280;74137;50.136;19.040;2024-01-30T09:47:04;100625.58;;;1.81;73.77
84051;BME280;74137;50.136;19.040;2024-01-30T09:49:34;100623.56;;;1.90;73.77
84051;BME280;74137;50.136;19.040;2024-01-30T09:52:05;100624.66;;;1.98;73.55
84051;BME280;74137;50.136;19.040;2024-01-30T09:54:36;100619.52;;;2.05;73.47
84051;BME280;74137;50.136;19.040;2024-01-30T09:57:05;100620.44;;;2.15;73.45
84051;BME280;74137;50.136;19.040;2024-01-30T09:59:37;100612.52;;;2.24;73.51
84051;BME280;74137;50.136;19.040;2024-01-30T10:02:06;100608.74;;;2.32;73.35
84051;BME280;74137;50.136;19.040;2024-01-30T10:04:37;100609.48;;;2.40;73.41
84051;BME280;74137;50.136;19.040;2024-01-30T10:07:07;100601.88;;;2.48;73.20
84051;BME280;74137;50.136;19.040;2024-01-30T10:09:39;100599.66;;;2.57;73.22
84051;BME280;74137;50.136;19.040;2024-01-30T10:12:11;100594.33;;;2.66;73.16
84051;BME280;74137;50.136;19.040;2024-01-30T10:14:42;100594.72;;;2.78;73.17
84051;BME280;74137;50.136;19.040;2024-01-30T10:17:12;100595.09;;;2.92;73.11
84051;BME280;74137;50.136;19.040;2024-01-30T10:19:56;100594.26;;;3.02;72.57
84051;BME280;74137;50.136;19.040;2024-01-30T10:22:29;100588.90;;;3.12;72.35
84051;BME280;74137;50.136;19.040;2024-01-30T10:24:58;100586.13;;;3.22;71.92
84051;BME280;74137;50.136;19.040;2024-01-30T10:27:34;100585.45;;;3.34;71.17
84051;BME280;74137;50.136;19.040;2024-01-30T10:30:03;100579.89;;;3.45;70.55
84051;BME280;74137;50.136;19.040;2024-01-30T10:32:32;100577.12;;;3.57;70.15
84051;BME280;74137;50.136;19.040;2024-01-30T10:35:00;100577.45;;;3.69;69.83
84051;BME280;74137;50.136;19.040;2024-01-30T10:37:30;100574.48;;;3.81;69.19
84051;BME280;74137;50.136;19.040;2024-01-30T10:40:02;100562.46;;;3.91;68.47
84051;BME280;74137;50.136;19.040;2024-01-30T10:42:36;100560.37;;;4.02;68.12
84051;BME280;74137;50.136;19.040;2024-01-30T10:47:36;100556.33;;;4.18;66.84
84051;BME280;74137;50.136;19.040;2024-01-30T10:50:08;100551.77;;;4.26;66.53
84051;BME280;74137;50.136;19.040;2024-01-30T10:52:38;100543.05;;;4.33;66.13
84051;BME280;74137;50.136;19.040;2024-01-30T10:55:08;100537.80;;;4.40;65.78
84051;BME280;74137;50.136;19.040;2024-01-30T10:57:39;100536.21;;;4.46;65.75
84051;BME280;74137;50.136;19.040;2024-01-30T11:00:10;100539.83;;;4.53;65.48
84051;BME280;74137;50.136;19.040;2024-01-30T11:02:41;100533.02;;;4.59;64.75
84051;BME280;74137;50.136;19.040;2024-01-30T11:05:12;100533.15;;;4.66;64.71
84051;BME280;74137;50.136;19.040;2024-01-30T11:07:40;100527.03;;;4.72;64.69
84051;BME280;74137;50.136;19.040;2024-01-30T11:10:11;100524.05;;;4.76;64.57
84051;BME280;74137;50.136;19.040;2024-01-30T11:12:43;100522.27;;;4.82;64.42
84051;BME280;74137;50.136;19.040;2024-01-30T11:15:18;100518.58;;;4.89;63.95
84051;BME280;74137;50.136;19.040;2024-01-30T11:20:29;100517.25;;;5.03;63.74
84051;BME280;74137;50.136;19.040;2024-01-30T11:23:03;100513.54;;;5.11;63.09
84051;BME280;74137;50.136;19.040;2024-01-30T11:25:35;100511.23;;;5.16;61.98
84051;BME280;74137;50.136;19.040;2024-01-30T11:28:13;100508.42;;;5.19;61.96
84051;BME280;74137;50.136;19.040;2024-01-30T11:30:43;100511.70;;;5.22;62.06
84051;BME280;74137;50.136;19.040;2024-01-30T11:33:13;100510.45;;;5.27;62.06
84051;BME280;74137;50.136;19.040;2024-01-30T11:35:45;100505.73;;;5.31;61.45
84051;BME280;74137;50.136;19.040;2024-01-30T11:38:17;100505.70;;;5.34;60.79
84051;BME280;74137;50.136;19.040;2024-01-30T11:40:46;100502.17;;;5.38;60.49
84051;BME280;74137;50.136;19.040;2024-01-30T11:43:16;100498.50;;;5.40;60.23
84051;BME280;74137;50.136;19.040;2024-01-30T11:45:46;100501.59;;;5.44;60.13
84051;BME280;74137;50.136;19.040;2024-01-30T11:48:15;100497.57;;;5.46;60.19
84051;BME280;74137;50.136;19.040;2024-01-30T11:50:46;100495.63;;;5.49;59.65
84051;BME280;74137;50.136;19.040;2024-01-30T11:53:17;100492.81;;;5.52;60.07
84051;BME280;74137;50.136;19.040;2024-01-30T11:55:50;100486.86;;;5.55;60.08
84051;BME280;74137;50.136;19.040;2024-01-30T11:58:24;100485.79;;;5.57;60.05
84051;BME280;74137;50.136;19.040;2024-01-30T12:00:55;100485.73;;;5.62;60.08
84051;BME280;74137;50.136;19.040;2024-01-30T12:03:24;100479.79;;;5.65;60.14
84051;BME280;74137;50.136;19.040;2024-01-30T12:05:57;100478.54;;;5.68;60.16
84051;BME280;74137;50.136;19.040;2024-01-30T12:08:30;100468.42;;;5.69;59.79
84051;BME280;74137;50.136;19.040;2024-01-30T12:10:58;100464.19;;;5.73;59.91
84051;BME280;74137;50.136;19.040;2024-01-30T12:13:28;100457.36;;;5.76;59.75
84051;BME280;74137;50.136;19.040;2024-01-30T12:16:01;100455.77;;;5.77;59.22
84051;BME280;74137;50.136;19.040;2024-01-30T12:18:30;100452.08;;;5.81;59.13
84051;BME280;74137;50.136;19.040;2024-01-30T12:20:59;100448.73;;;5.84;59.40
84051;BME280;74137;50.136;19.040;2024-01-30T12:23:28;100442.95;;;5.87;59.20
84051;BME280;74137;50.136;19.040;2024-01-30T12:25:59;100439.77;;;5.89;59.16
84051;BME280;74137;50.136;19.040;2024-01-30T12:28:28;100437.84;;;5.91;59.34
84051;BME280;74137;50.136;19.040;2024-01-30T12:30:56;100435.91;;;5.92;59.14
84051;BME280;74137;50.136;19.040;2024-01-30T12:33:30;100434.68;;;5.93;58.75
84051;BME280;74137;50.136;19.040;2024-01-30T12:36:01;100434.31;;;5.94;58.61
84051;BME280;74137;50.136;19.040;2024-01-30T12:38:33;100431.36;;;5.95;58.34
84051;BME280;74137;50.136;19.040;2024-01-30T12:41:02;100429.27;;;5.96;58.20
84051;BME280;74137;50.136;19.040;2024-01-30T12:43:30;100427.86;;;5.97;58.47
84051;BME280;74137;50.136;19.040;2024-01-30T12:46:08;100428.35;;;5.99;58.27
84051;BME280;74137;50.136;19.040;2024-01-30T12:48:39;100430.09;;;6.00;58.31
84051;BME280;74137;50.136;19.040;2024-01-30T12:51:07;100426.23;;;6.02;58.31
84051;BME280;74137;50.136;19.040;2024-01-30T12:53:35;100425.52;;;6.03;58.27
84051;BME280;74137;50.136;19.040;2024-01-30T12:56:06;100424.98;;;6.04;58.28
84051;BME280;74137;50.136;19.040;2024-01-30T12:58:34;100418.71;;;6.05;58.39
84051;BME280;74137;50.136;19.040;2024-01-30T13:01:03;100418.02;;;6.05;58.30